Site contains unofficial IBTrACS data. Visit the IBTrACS Website to access archived data.

1958 Tropical Cyclone NOT_NAMED (1958108S12161)


IBTrACS version v04r00. Visit IBTrACS website for data access.
Please direct all questions to the IBTrACS Q and A forum

Storm track - Intensity - Wind Radii - Intensity Data - Source Data - All data

Summary Information

Storm ID 1958108S12161
Start Apr 17 23Z
Max Intensity 35 kt (Apr 22 06Z), 998 mb (Apr 22 05Z)
End Apr 23 23Z
ATCF IDs ,SH311958
Track status Best track data.

Storm track plot

Map of storm track

Intensity plots

Map of storm track

Radial wind information

No radial wind information for this storm


Position and Intensity Table

BASIN ISO_TIME_________ NATURE LAT LON WMO PRES BOM PRES DS824 WIND DS824 PRES
degrees north degrees east mb mb kts mb
SP 1958-04-17 23:00:00 NR -12.00 161.00 1000 1000
SP 1958-04-18 00:00:00 TS -12.08 160.91 30 1000
SP 03:00:00 TS -12.26 160.66
SP 06:00:00 TS -12.44 160.42
SP 09:00:00 TS -12.64 160.17
SP 11:00:00 TS -12.78 160.01
SP 12:00:00 TS -12.85 159.93
SP 15:00:00 TS -13.05 159.72
SP 18:00:00 TS -13.27 159.52
SP 21:00:00 TS -13.50 159.31
SP 23:00:00 TS -13.65 159.18
SP 1958-04-19 00:00:00 TS -13.73 159.11
SP 03:00:00 TS -13.94 158.91
SP 06:00:00 TS -14.14 158.72
SP 09:00:00 TS -14.35 158.52
SP 11:00:00 TS -14.49 158.39
SP 12:00:00 TS -14.56 158.33
SP 15:00:00 TS -14.77 158.16
SP 18:00:00 TS -14.98 157.97
SP 21:00:00 TS -15.21 157.77
SP 23:00:00 TS -15.36 157.61
SP 1958-04-20 00:00:00 TS -15.43 157.52
SP 03:00:00 TS -15.63 157.19
SP 06:00:00 TS -15.83 156.82
SP 09:00:00 TS -16.02 156.45
SP 11:00:00 TS -16.14 156.21
SP 12:00:00 TS -16.20 156.09
SP 15:00:00 TS -16.33 155.72
SP 18:00:00 TS -16.46 155.37
SP 21:00:00 TS -16.62 155.04
SP 23:00:00 TS -16.74 154.84 1003 1003
SP 1958-04-21 00:00:00 TS -16.80 154.73 1003 25 1003
SP 03:00:00 TS -16.99 154.41 1003 25 1003
SP 05:00:00 TS -17.13 154.22 1003 1003 25 1003
SP 06:00:00 TS -17.21 154.14 25 1003
SP 09:00:00 TS -17.48 153.95
SP 11:00:00 TS -17.68 153.89
SP 12:00:00 TS -17.80 153.89
SP 15:00:00 TS -18.17 153.98
SP 18:00:00 TS -18.57 154.20
SP 21:00:00 TS -18.94 154.51
SP 23:00:00 TS -19.18 154.75 1001 1001
SP 1958-04-22 00:00:00 TS -19.29 154.86 1000 30 1001
SP 03:00:00 TS -19.62 155.22 999 32 999
SP 05:00:00 TS -19.83 155.47 998 998 34 998
SP 06:00:00 TS -19.93 155.61 35 998
SP 09:00:00 TS -20.20 156.03
SP 11:00:00 TS -20.36 156.33
SP 12:00:00 TS -20.44 156.49
SP 15:00:00 TS -20.67 156.99
SP 18:00:00 TS -20.87 157.48
SP 21:00:00 TS -21.04 157.91
SP 23:00:00 TS -21.14 158.16 1000 1000
SP 1958-04-23 00:00:00 TS -21.19 158.27 30 1000
SP 03:00:00 TS -21.30 158.49
SP 06:00:00 TS -21.36 158.64
SP 09:00:00 TS -21.39 158.78
SP 11:00:00 TS -21.40 158.87
SP 12:00:00 TS -21.41 158.92
SP 15:00:00 TS -21.46 159.06
SP 18:00:00 TS -21.53 159.19
SP 21:00:00 NR -21.60 159.31
SP 23:00:00 NR -21.65 159.40 1004 1004

Source Information

Agency Information
USA bsh311958.txt
TOKYO
CMA
HKO
NEWDELHI
REUNION
BOM IDCKMSTM0S.csv:Line=2631:unnamed
NADI
WELLINGTON
DS824 aus_area.dat:268:NOT NAMED
TD9636 cons_worldwide_trop_cyclone_18710101-19891231-006:Line=5225
TD9635
NEUMANN
MLC

All available IBTrACS Data

SEASON BASIN SUBBASIN ISO_TIME_________ NATURE LAT LON WMO PRES WMO AGENCY DIST2LAND LANDFALL IFLAG USA AGENCY USA ATCF_ID USA LAT USA LON USA SSHS BOM LAT BOM LON BOM PRES BOM PRES_METHOD DS824 LAT DS824 LON DS824 STAGE DS824 WIND DS824 PRES TD9636 LAT TD9636 LON TD9636 STAGE STORM SPEED STORM DIR
Year degrees north degrees east mb km km degrees north degrees east 1 degrees north degrees east mb degrees north degrees east kts mb degrees north degrees east kts degrees
1958 SP MM 1958-04-17 23:00:00 NR -12.00 161.00 1000 bom 160 160 ______O___O___ -1 -12.00 161.00 1000 -12.00 161.00 1 7 229
1958 SP MM 1958-04-18 00:00:00 TS -12.08 160.91 175 175 O_____P__OP___ jtwc_sh SH311958 -12.10 160.90 -1 -12.07 160.92 -12.10 160.90 TC 30 1000 -12.05 160.91 1 6 232
1958 SP MM 03:00:00 TS -12.26 160.66 206 206 P_____P__PP___ SH311958 -12.24 160.65 -1 -12.28 160.68 -12.31 160.66 TC -12.22 160.65 1 6 233
1958 SP MM 06:00:00 TS -12.44 160.42 234 234 O_____P__PP___ jtwc_sh SH311958 -12.40 160.40 -1 -12.49 160.45 -12.52 160.43 TC -12.39 160.40 1 6 232
1958 SP MM 09:00:00 TS -12.64 160.17 265 265 P_____P__PP___ SH311958 -12.59 160.14 -1 -12.70 160.21 -12.73 160.19 TC -12.57 160.15 1 6 230
1958 SP MM 11:00:00 TS -12.78 160.01 295 295 P_____P__PO___ SH311958 -12.73 159.98 -1 -12.84 160.06 -12.87 160.04 TC -12.70 160.00 1 6 228
1958 SP EA 12:00:00 TS -12.85 159.93 301 301 O_____P__PP___ jtwc_sh SH311958 -12.80 159.90 -1 -12.91 159.99 -12.94 159.96 TC -12.77 159.93 1 6 226
1958 SP EA 15:00:00 TS -13.05 159.72 341 341 P_____P__PP___ SH311958 -12.99 159.69 -1 -13.13 159.76 -13.15 159.74 TC -12.99 159.72 1 6 224
1958 SP EA 18:00:00 TS -13.27 159.52 372 372 O_____P__PP___ jtwc_sh SH311958 -13.20 159.50 -1 -13.34 159.54 -13.37 159.52 TC -13.22 159.52 1 6 221
1958 SP EA 21:00:00 TS -13.50 159.31 403 403 P_____P__PP___ SH311958 -13.45 159.30 -1 -13.56 159.33 -13.58 159.30 TC -13.45 159.33 1 6 220
1958 SP EA 23:00:00 TS -13.65 159.18 bom 427 427 P_____O__PO___ SH311958 -13.62 159.17 -1 -13.70 159.20 -13.73 159.17 TC -13.60 159.20 1 6 220
1958 SP EA 1958-04-19 00:00:00 TS -13.73 159.11 434 434 O_____P__OP___ jtwc_sh SH311958 -13.70 159.10 -1 -13.77 159.13 -13.80 159.10 TC -13.67 159.13 1 6 222
1958 SP EA 03:00:00 TS -13.94 158.91 465 465 P_____P__PP___ SH311958 -13.91 158.90 -1 -13.99 158.94 -14.02 158.91 TC -13.87 158.93 1 6 223
1958 SP EA 06:00:00 TS -14.14 158.72 496 496 O_____P__PP___ jtwc_sh SH311958 -14.10 158.70 -1 -14.21 158.75 -14.24 158.72 TC -14.07 158.73 1 6 223
1958 SP EA 09:00:00 TS -14.35 158.52 534 534 P_____P__PP___ SH311958 -14.30 158.49 -1 -14.43 158.56 -14.46 158.53 TC -14.26 158.53 1 6 223
1958 SP EA 11:00:00 TS -14.49 158.39 547 547 P_____P__PO___ SH311958 -14.43 158.36 -1 -14.57 158.43 -14.61 158.40 TC -14.40 158.40 1 6 222
1958 SP EA 12:00:00 TS -14.56 158.33 561 561 O_____P__PP___ jtwc_sh SH311958 -14.50 158.30 -1 -14.64 158.36 -14.68 158.33 TC -14.47 158.35 1 5 219
1958 SP EA 15:00:00 TS -14.77 158.16 586 586 P_____P__PP___ SH311958 -14.69 158.15 -1 -14.86 158.15 -14.89 158.13 TC -14.70 158.20 1 5 219
1958 SP EA 18:00:00 TS -14.98 157.97 614 614 O_____P__PP___ jtwc_sh SH311958 -14.90 158.00 -1 -15.06 157.93 -15.10 157.91 TC -14.93 158.04 1 6 220
1958 SP EA 21:00:00 TS -15.21 157.77 642 642 P_____P__PP___ SH311958 -15.15 157.83 -1 -15.27 157.68 -15.31 157.67 TC -15.15 157.85 1 6 223
1958 SP EA 23:00:00 TS -15.36 157.61 bom 670 670 P_____O__PO___ SH311958 -15.32 157.69 -1 -15.40 157.50 -15.44 157.49 TC -15.30 157.70 1 7 228
1958 SP EA 1958-04-20 00:00:00 TS -15.43 157.52 674 674 O_____P__OP___ jtwc_sh SH311958 -15.40 157.60 -1 -15.47 157.39 -15.50 157.40 TC -15.37 157.61 1 7 236
1958 SP EA 03:00:00 TS -15.63 157.19 708 708 P_____P__PP___ SH311958 -15.61 157.27 -1 -15.68 157.06 -15.68 157.06 TC -15.59 157.28 1 8 239
1958 SP EA 06:00:00 TS -15.83 156.82 746 746 O_____P__PP___ jtwc_sh SH311958 -15.80 156.90 -1 -15.88 156.70 -15.86 156.69 TC -15.79 156.92 1 8 241
1958 SP EA 09:00:00 TS -16.02 156.45 780 780 P_____P__PP___ SH311958 -16.01 156.55 -1 -16.07 156.32 -16.03 156.31 TC -15.98 156.55 1 8 242
1958 SP EA 11:00:00 TS -16.14 156.21 806 806 P_____P__PO___ SH311958 -16.14 156.32 -1 -16.20 156.06 -16.14 156.04 TC -16.10 156.30 1 8 243
1958 SP EA 12:00:00 TS -16.20 156.09 821 821 O_____P__PP___ jtwc_sh SH311958 -16.20 156.20 -1 -16.25 155.93 -16.19 155.91 TC -16.15 156.19 1 8 248
1958 SP EA 15:00:00 TS -16.33 155.72 836 815 P_____P__PP___ SH311958 -16.30 155.84 -1 -16.43 155.55 -16.35 155.52 TC -16.29 155.85 1 7 249
1958 SP EA 18:00:00 TS -16.46 155.37 815 782 O_____P__PP___ jtwc_sh SH311958 -16.40 155.50 -1 -16.58 155.18 -16.50 155.15 TC -16.42 155.52 1 7 246
1958 SP EA 21:00:00 TS -16.62 155.04 773 758 P_____P__PP___ SH311958 -16.58 155.19 -1 -16.72 154.82 -16.65 154.81 TC -16.58 155.20 1 7 241
1958 SP EA 23:00:00 TS -16.74 154.84 1003 bom 749 734 P_____O__PO___ SH311958 -16.72 155.00 -1 -16.80 154.60 1003 -16.75 154.60 TC -16.70 155.00 1 7 239
1958 SP EA 1958-04-21 00:00:00 TS -16.80 154.73 734 695 O_____P__OP___ jtwc_sh SH311958 -16.80 154.90 -1 -16.83 154.48 1003 -16.80 154.50 TC 25 1003 -16.77 154.88 1 7 239
1958 SP EA 03:00:00 TS -16.99 154.41 695 671 P_____P__PP___ SH311958 -17.04 154.58 -1 -16.92 154.16 1003 -16.93 154.21 TC 25 1003 -17.01 154.51 1 7 236
1958 SP EA 05:00:00 TS -17.13 154.22 1003 bom 671 665 P_____O__PP___ SH311958 -17.21 154.39 -1 -17.00 154.00 1003 -17.04 154.06 TC 25 1003 -17.19 154.29 1 7 229
1958 SP EA 06:00:00 TS -17.21 154.14 656 630 O_____P__OP___ jtwc_sh SH311958 -17.30 154.30 -1 -17.06 153.94 -17.10 154.00 TC 25 1003 -17.28 154.19 1 7 217
1958 SP EA 09:00:00 TS -17.48 153.95 630 609 P_____P__PP___ SH311958 -17.58 154.03 -1 -17.29 153.84 -17.35 153.89 TC -17.59 153.96 1 6 207
1958 SP EA 11:00:00 TS -17.68 153.89 609 604 P_____P__PO___ SH311958 -17.79 153.92 -1 -17.49 153.83 -17.56 153.88 TC -17.80 153.90 1 7 189
1958 SP EA 12:00:00 TS -17.80 153.89 604 582 O_____P__PP___ jtwc_sh SH311958 -17.90 153.90 -1 -17.60 153.85 -17.67 153.90 TC -17.91 153.90 1 8 170
1958 SP EA 15:00:00 TS -18.17 153.98 582 561 P_____P__PP___ SH311958 -18.30 153.97 -1 -17.96 153.97 -18.05 154.00 TC -18.26 154.01 1 8 159
1958 SP EA 18:00:00 TS -18.57 154.20 559 548 O_____P__PP___ jtwc_sh SH311958 -18.70 154.20 -1 -18.37 154.18 -18.45 154.19 TC -18.63 154.24 1 9 147
1958 SP EA 21:00:00 TS -18.94 154.51 556 547 P_____P__PP___ SH311958 -19.02 154.52 -1 -18.80 154.47 -18.88 154.46 TC -18.98 154.56 1 10 140
1958 SP EA 23:00:00 TS -19.18 154.75 1001 bom 547 547 P_____O__PO___ SH311958 -19.21 154.77 -1 -19.10 154.70 1001 -19.16 154.68 TC -19.20 154.80 2 10 136
1958 SP EA 1958-04-22 00:00:00 TS -19.29 154.86 556 548 O_____P__OP___ jtwc_sh SH311958 -19.30 154.90 -1 -19.25 154.82 1000 -19.30 154.80 TC 30 1001 -19.30 154.90 2 9 135
1958 SP EA 03:00:00 TS -19.62 155.22 559 559 P_____P__PP___ SH311958 -19.56 155.24 -1 -19.72 155.21 999 -19.72 155.18 TC 32 999 -19.56 155.23 2 9 133
1958 SP EA 05:00:00 TS -19.83 155.47 998 bom 573 567 P_____O__PP___ SH311958 -19.72 155.47 -1 -20.00 155.50 998 4 -19.98 155.46 TC 34 998 -19.73 155.47 2 10 130
1958 SP EA 06:00:00 TS -19.93 155.61 576 576 O_____P__OP___ jtwc_sh SH311958 -19.80 155.60 -1 -20.12 155.64 -20.10 155.60 TC 35 998 -19.81 155.60 2 10 125
1958 SP EA 09:00:00 TS -20.20 156.03 584 579 P_____P__PP___ SH311958 -20.05 156.02 -1 -20.43 156.08 -20.41 156.03 TC -20.04 156.01 2 10 122
1958 SP EA 11:00:00 TS -20.36 156.33 580 580 P_____P__PO___ SH311958 -20.22 156.33 -1 -20.59 156.38 -20.57 156.31 TC -20.20 156.30 1 10 119
1958 SP EA 12:00:00 TS -20.44 156.49 591 582 O_____P__PP___ jtwc_sh SH311958 -20.30 156.50 -1 -20.66 156.53 -20.63 156.45 TC -20.29 156.47 1 10 116
1958 SP EA 15:00:00 TS -20.67 156.99 594 594 P_____P__PP___ SH311958 -20.56 157.06 -1 -20.83 156.97 -20.80 156.87 TC -20.58 157.00 1 10 115
1958 SP EA 18:00:00 TS -20.87 157.48 612 612 O_____P__PP___ jtwc_sh SH311958 -20.80 157.60 -1 -20.95 157.39 -20.93 157.28 TC -20.85 157.54 1 9 113
1958 SP EA 21:00:00 TS -21.04 157.91 634 620 P_____P__PP___ SH311958 -21.02 158.01 -1 -21.05 157.77 -21.02 157.69 TC -21.08 158.03 1 8 114
1958 SP EA 23:00:00 TS -21.14 158.16 1000 bom 609 609 P_____O__PO___ SH311958 -21.15 158.22 -1 -21.10 158.00 1000 -21.07 157.96 TC -21.20 158.30 2 7 114
1958 SP EA 1958-04-23 00:00:00 TS -21.19 158.27 601 582 O_____P__OP___ jtwc_sh SH311958 -21.20 158.30 -1 -21.13 158.10 -21.10 158.10 TC 30 1000 -21.24 158.40 2 5 117
1958 SP EA 03:00:00 TS -21.30 158.49 582 572 P_____P___P___ SH311958 -21.33 158.48 -1 -21.20 158.38 TC -21.33 158.61 2 4 117
1958 SP EA 06:00:00 TS -21.36 158.64 574 554 O_____P___P___ jtwc_sh SH311958 -21.40 158.60 -1 -21.28 158.61 TC -21.37 158.74 2 3 108
1958 SP EA 09:00:00 TS -21.39 158.78 554 543 P_____P___P___ SH311958 -21.41 158.75 -1 -21.36 158.79 TC -21.39 158.84 2 3 100
1958 SP EA 11:00:00 TS -21.40 158.87 543 543 P_____P___O___ SH311958 -21.40 158.85 -1 -21.41 158.89 TC -21.40 158.90 1 3 100
1958 SP EA 12:00:00 TS -21.41 158.92 543 526 O_____P___P___ jtwc_sh SH311958 -21.40 158.90 -1 -21.43 158.94 TC -21.41 158.94 1 3 110
1958 SP EA 15:00:00 TS -21.46 159.06 526 516 P_____P___P___ SH311958 -21.44 159.05 -1 -21.50 159.06 TC -21.45 159.06 1 3 115
1958 SP EA 18:00:00 TS -21.53 159.19 516 509 O_____P___P___ jtwc_sh SH311958 -21.50 159.20 -1 -21.58 159.16 -21.50 159.22 1 3 121
1958 SP EA 21:00:00 NR -21.60 159.31 509 499 ______P___P___ SH311958 -1 -21.65 159.25 -21.56 159.38 1 3 122
1958 SP EA 23:00:00 NR -21.65 159.40 1004 bom 499 ______O___O___ SH311958 -1 -21.70 159.30 1004 -21.60 159.50 1 3 121